sim
Sign-in with your pilot id or email,
or register
Callsign
Passwort

Schedule Details

Flight Number: OEO4280
Departure: Madrid Barajas Airport (LEMD) at 11:50
Arrival: Fuerteventura Airport (GCFV) at 14:40

Weather Information
Getting current METAR information for LEMD 172300Z 09004KT 010V130 CAVOK 29/03 Q1014 NOSIG
Getting current METAR information for GCFV 172300Z AUTO 03003KT 010V070 9000 4200S NSC 23/20 Q1014

Schedule Frequency

Route Map